sensor_id;sensor_type;location;lat;lon;timestamp;P1;durP1;ratioP1;P2;durP2;ratioP2
11222;SDS011;5668;52.012;8.724;2023-03-17T00:00:35;4.40;;;4.00;;
11222;SDS011;5668;52.012;8.724;2023-03-17T00:03:03;4.30;;;3.70;;
11222;SDS011;5668;52.012;8.724;2023-03-17T00:05:32;4.50;;;3.47;;
11222;SDS011;5668;52.012;8.724;2023-03-17T00:08:01;3.93;;;3.50;;
11222;SDS011;5668;52.012;8.724;2023-03-17T00:10:32;3.90;;;3.33;;
11222;SDS011;5668;52.012;8.724;2023-03-17T00:13:00;4.73;;;3.40;;
11222;SDS011;5668;52.012;8.724;2023-03-17T00:15:29;4.53;;;3.67;;
11222;SDS011;5668;52.012;8.724;2023-03-17T00:17:56;3.53;;;3.23;;
11222;SDS011;5668;52.012;8.724;2023-03-17T00:20:24;4.23;;;3.43;;
11222;SDS011;5668;52.012;8.724;2023-03-17T00:22:53;4.43;;;3.37;;
11222;SDS011;5668;52.012;8.724;2023-03-17T00:25:24;3.47;;;3.17;;
11222;SDS011;5668;52.012;8.724;2023-03-17T00:27:52;3.53;;;3.23;;
11222;SDS011;5668;52.012;8.724;2023-03-17T00:30:20;3.80;;;3.30;;
11222;SDS011;5668;52.012;8.724;2023-03-17T00:32:50;4.60;;;3.30;;
11222;SDS011;5668;52.012;8.724;2023-03-17T00:35:20;4.80;;;3.33;;
11222;SDS011;5668;52.012;8.724;2023-03-17T00:37:49;3.93;;;3.50;;
11222;SDS011;5668;52.012;8.724;2023-03-17T00:40:19;3.83;;;3.10;;
11222;SDS011;5668;52.012;8.724;2023-03-17T00:42:48;3.30;;;3.00;;
11222;SDS011;5668;52.012;8.724;2023-03-17T00:45:17;4.20;;;3.40;;
11222;SDS011;5668;52.012;8.724;2023-03-17T00:47:46;3.37;;;3.03;;
11222;SDS011;5668;52.012;8.724;2023-03-17T00:50:17;3.83;;;3.43;;
11222;SDS011;5668;52.012;8.724;2023-03-17T00:52:47;5.47;;;3.93;;
11222;SDS011;5668;52.012;8.724;2023-03-17T00:55:16;4.10;;;3.30;;
11222;SDS011;5668;52.012;8.724;2023-03-17T00:57:45;4.50;;;3.20;;
11222;SDS011;5668;52.012;8.724;2023-03-17T01:00:18;3.87;;;3.50;;
11222;SDS011;5668;52.012;8.724;2023-03-17T01:02:48;5.80;;;3.30;;
11222;SDS011;5668;52.012;8.724;2023-03-17T01:05:18;5.07;;;2.93;;
11222;SDS011;5668;52.012;8.724;2023-03-17T01:07:48;4.30;;;3.65;;
11222;SDS011;5668;52.012;8.724;2023-03-17T01:10:20;3.77;;;3.30;;
11222;SDS011;5668;52.012;8.724;2023-03-17T01:12:50;3.87;;;3.47;;
11222;SDS011;5668;52.012;8.724;2023-03-17T01:15:18;3.50;;;3.20;;
11222;SDS011;5668;52.012;8.724;2023-03-17T01:17:46;4.07;;;3.17;;
11222;SDS011;5668;52.012;8.724;2023-03-17T01:20:15;4.17;;;3.27;;
11222;SDS011;5668;52.012;8.724;2023-03-17T01:22:48;3.63;;;3.23;;
11222;SDS011;5668;52.012;8.724;2023-03-17T01:25:16;3.40;;;3.10;;
11222;SDS011;5668;52.012;8.724;2023-03-17T01:27:44;3.90;;;3.17;;
11222;SDS011;5668;52.012;8.724;2023-03-17T01:30:20;3.80;;;3.40;;
11222;SDS011;5668;52.012;8.724;2023-03-17T01:32:50;3.53;;;3.13;;
11222;SDS011;5668;52.012;8.724;2023-03-17T01:35:18;4.37;;;3.30;;
11222;SDS011;5668;52.012;8.724;2023-03-17T01:37:46;4.03;;;3.63;;
11222;SDS011;5668;52.012;8.724;2023-03-17T01:40:16;3.80;;;3.47;;
11222;SDS011;5668;52.012;8.724;2023-03-17T01:42:47;3.47;;;3.17;;
11222;SDS011;5668;52.012;8.724;2023-03-17T01:48:23;4.07;;;3.10;;
11222;SDS011;5668;52.012;8.724;2023-03-17T01:50:54;3.87;;;3.10;;
11222;SDS011;5668;52.012;8.724;2023-03-17T01:53:23;4.67;;;2.87;;
11222;SDS011;5668;52.012;8.724;2023-03-17T01:55:52;3.80;;;3.40;;
11222;SDS011;5668;52.012;8.724;2023-03-17T01:58:22;3.57;;;3.27;;
11222;SDS011;5668;52.012;8.724;2023-03-17T02:00:51;4.03;;;3.50;;
11222;SDS011;5668;52.012;8.724;2023-03-17T02:03:18;3.93;;;3.40;;
11222;SDS011;5668;52.012;8.724;2023-03-17T02:05:45;3.77;;;3.40;;
11222;SDS011;5668;52.012;8.724;2023-03-17T02:08:16;3.40;;;3.10;;
11222;SDS011;5668;52.012;8.724;2023-03-17T02:10:45;4.77;;;3.23;;
11222;SDS011;5668;52.012;8.724;2023-03-17T02:13:14;5.17;;;3.23;;
11222;SDS011;5668;52.012;8.724;2023-03-17T02:15:43;3.70;;;3.17;;
11222;SDS011;5668;52.012;8.724;2023-03-17T02:18:12;4.17;;;3.40;;
11222;SDS011;5668;52.012;8.724;2023-03-17T02:23:55;5.53;;;3.50;;
11222;SDS011;5668;52.012;8.724;2023-03-17T02:26:24;3.97;;;3.33;;
11222;SDS011;5668;52.012;8.724;2023-03-17T02:28:53;3.70;;;3.10;;
11222;SDS011;5668;52.012;8.724;2023-03-17T02:31:22;4.17;;;3.40;;
11222;SDS011;5668;52.012;8.724;2023-03-17T02:33:50;4.43;;;3.67;;
11222;SDS011;5668;52.012;8.724;2023-03-17T02:36:18;3.77;;;3.27;;
11222;SDS011;5668;52.012;8.724;2023-03-17T02:38:47;4.60;;;3.50;;
11222;SDS011;5668;52.012;8.724;2023-03-17T02:41:14;3.57;;;3.17;;
11222;SDS011;5668;52.012;8.724;2023-03-17T02:43:41;3.53;;;3.23;;
11222;SDS011;5668;52.012;8.724;2023-03-17T02:46:09;4.80;;;3.20;;
11222;SDS011;5668;52.012;8.724;2023-03-17T02:48:36;3.70;;;3.30;;
11222;SDS011;5668;52.012;8.724;2023-03-17T02:51:04;3.63;;;3.30;;
11222;SDS011;5668;52.012;8.724;2023-03-17T02:53:32;4.30;;;3.23;;
11222;SDS011;5668;52.012;8.724;2023-03-17T02:56:00;3.43;;;3.10;;
11222;SDS011;5668;52.012;8.724;2023-03-17T02:58:28;4.07;;;3.50;;
11222;SDS011;5668;52.012;8.724;2023-03-17T03:00:55;4.83;;;3.60;;
11222;SDS011;5668;52.012;8.724;2023-03-17T03:03:22;5.43;;;3.77;;
11222;SDS011;5668;52.012;8.724;2023-03-17T03:05:50;3.63;;;3.33;;
11222;SDS011;5668;52.012;8.724;2023-03-17T03:08:17;4.33;;;3.77;;
11222;SDS011;5668;52.012;8.724;2023-03-17T03:10:44;6.87;;;3.67;;
11222;SDS011;5668;52.012;8.724;2023-03-17T03:13:13;3.80;;;3.37;;
11222;SDS011;5668;52.012;8.724;2023-03-17T03:15:40;3.93;;;3.37;;
11222;SDS011;5668;52.012;8.724;2023-03-17T03:18:08;4.67;;;4.00;;
11222;SDS011;5668;52.012;8.724;2023-03-17T03:20:36;4.00;;;3.60;;
11222;SDS011;5668;52.012;8.724;2023-03-17T03:23:03;5.07;;;3.60;;
11222;SDS011;5668;52.012;8.724;2023-03-17T03:25:31;4.70;;;3.97;;
11222;SDS011;5668;52.012;8.724;2023-03-17T03:27:59;3.87;;;3.47;;
11222;SDS011;5668;52.012;8.724;2023-03-17T03:30:27;4.37;;;3.93;;
11222;SDS011;5668;52.012;8.724;2023-03-17T03:32:55;4.40;;;4.00;;
11222;SDS011;5668;52.012;8.724;2023-03-17T03:35:22;6.60;;;4.10;;
11222;SDS011;5668;52.012;8.724;2023-03-17T03:37:49;4.60;;;4.20;;
11222;SDS011;5668;52.012;8.724;2023-03-17T03:40:17;4.03;;;3.63;;
11222;SDS011;5668;52.012;8.724;2023-03-17T03:42:45;4.27;;;3.80;;
11222;SDS011;5668;52.012;8.724;2023-03-17T03:45:13;3.83;;;3.50;;
11222;SDS011;5668;52.012;8.724;2023-03-17T03:47:41;5.03;;;3.67;;
11222;SDS011;5668;52.012;8.724;2023-03-17T03:50:10;4.83;;;3.83;;
11222;SDS011;5668;52.012;8.724;2023-03-17T03:52:39;4.73;;;4.03;;
11222;SDS011;5668;52.012;8.724;2023-03-17T03:55:06;4.50;;;3.77;;
11222;SDS011;5668;52.012;8.724;2023-03-17T03:57:34;5.47;;;4.07;;
11222;SDS011;5668;52.012;8.724;2023-03-17T04:00:02;4.30;;;3.90;;
11222;SDS011;5668;52.012;8.724;2023-03-17T04:02:31;4.97;;;3.90;;
11222;SDS011;5668;52.012;8.724;2023-03-17T04:05:00;4.33;;;3.93;;
11222;SDS011;5668;52.012;8.724;2023-03-17T04:07:28;5.17;;;4.03;;
11222;SDS011;5668;52.012;8.724;2023-03-17T04:09:55;4.30;;;3.90;;
11222;SDS011;5668;52.012;8.724;2023-03-17T04:12:23;5.07;;;4.60;;
11222;SDS011;5668;52.012;8.724;2023-03-17T04:14:51;4.93;;;4.30;;
11222;SDS011;5668;52.012;8.724;2023-03-17T04:17:18;4.40;;;3.93;;
11222;SDS011;5668;52.012;8.724;2023-03-17T04:19:45;4.50;;;4.10;;
11222;SDS011;5668;52.012;8.724;2023-03-17T04:22:14;5.67;;;4.30;;
11222;SDS011;5668;52.012;8.724;2023-03-17T04:24:41;5.37;;;4.60;;
11222;SDS011;5668;52.012;8.724;2023-03-17T04:27:10;4.50;;;4.10;;
11222;SDS011;5668;52.012;8.724;2023-03-17T04:29:39;4.87;;;4.37;;
11222;SDS011;5668;52.012;8.724;2023-03-17T04:32:07;4.37;;;3.87;;
11222;SDS011;5668;52.012;8.724;2023-03-17T04:34:35;4.57;;;4.10;;
11222;SDS011;5668;52.012;8.724;2023-03-17T04:37:02;4.70;;;4.20;;
11222;SDS011;5668;52.012;8.724;2023-03-17T04:39:31;4.60;;;4.10;;
11222;SDS011;5668;52.012;8.724;2023-03-17T04:41:58;5.33;;;4.50;;
11222;SDS011;5668;52.012;8.724;2023-03-17T04:44:26;4.70;;;4.20;;
11222;SDS011;5668;52.012;8.724;2023-03-17T04:46:53;5.20;;;4.53;;
11222;SDS011;5668;52.012;8.724;2023-03-17T04:49:20;5.20;;;4.70;;
11222;SDS011;5668;52.012;8.724;2023-03-17T04:51:47;6.37;;;4.17;;
11222;SDS011;5668;52.012;8.724;2023-03-17T04:54:15;5.30;;;4.80;;
11222;SDS011;5668;52.012;8.724;2023-03-17T04:56:43;5.10;;;4.60;;
11222;SDS011;5668;52.012;8.724;2023-03-17T04:59:11;6.27;;;4.13;;
11222;SDS011;5668;52.012;8.724;2023-03-17T05:01:38;5.73;;;4.40;;
11222;SDS011;5668;52.012;8.724;2023-03-17T05:04:06;5.10;;;4.67;;
11222;SDS011;5668;52.012;8.724;2023-03-17T05:06:33;6.10;;;4.67;;
11222;SDS011;5668;52.012;8.724;2023-03-17T05:09:01;4.97;;;4.47;;
11222;SDS011;5668;52.012;8.724;2023-03-17T05:11:28;4.43;;;4.00;;
11222;SDS011;5668;52.012;8.724;2023-03-17T05:13:57;5.10;;;4.33;;
11222;SDS011;5668;52.012;8.724;2023-03-17T05:16:24;4.70;;;4.30;;
11222;SDS011;5668;52.012;8.724;2023-03-17T05:18:52;6.47;;;4.30;;
11222;SDS011;5668;52.012;8.724;2023-03-17T05:21:19;6.73;;;4.20;;
11222;SDS011;5668;52.012;8.724;2023-03-17T05:23:46;4.77;;;4.37;;
11222;SDS011;5668;52.012;8.724;2023-03-17T05:26:14;5.90;;;4.70;;
11222;SDS011;5668;52.012;8.724;2023-03-17T05:28:41;5.07;;;4.57;;
11222;SDS011;5668;52.012;8.724;2023-03-17T05:31:10;5.43;;;4.93;;
11222;SDS011;5668;52.012;8.724;2023-03-17T05:33:37;5.70;;;5.00;;
11222;SDS011;5668;52.012;8.724;2023-03-17T05:36:04;4.90;;;4.40;;
11222;SDS011;5668;52.012;8.724;2023-03-17T05:38:32;5.23;;;4.73;;
11222;SDS011;5668;52.012;8.724;2023-03-17T05:41:00;5.17;;;4.67;;
11222;SDS011;5668;52.012;8.724;2023-03-17T05:43:28;5.33;;;4.57;;
11222;SDS011;5668;52.012;8.724;2023-03-17T05:45:55;4.60;;;4.20;;
11222;SDS011;5668;52.012;8.724;2023-03-17T05:48:24;5.23;;;4.73;;
11222;SDS011;5668;52.012;8.724;2023-03-17T05:50:51;6.30;;;5.00;;
11222;SDS011;5668;52.012;8.724;2023-03-17T05:53:18;5.50;;;4.97;;
11222;SDS011;5668;52.012;8.724;2023-03-17T05:55:46;6.10;;;4.67;;
11222;SDS011;5668;52.012;8.724;2023-03-17T05:58:13;5.27;;;4.77;;
11222;SDS011;5668;52.012;8.724;2023-03-17T06:00:41;5.40;;;4.90;;
11222;SDS011;5668;52.012;8.724;2023-03-17T06:03:09;4.80;;;4.40;;
11222;SDS011;5668;52.012;8.724;2023-03-17T06:05:38;7.37;;;4.53;;
11222;SDS011;5668;52.012;8.724;2023-03-17T06:08:05;6.37;;;5.00;;
11222;SDS011;5668;52.012;8.724;2023-03-17T06:10:33;5.30;;;4.70;;
11222;SDS011;5668;52.012;8.724;2023-03-17T06:13:00;5.53;;;4.40;;
11222;SDS011;5668;52.012;8.724;2023-03-17T06:15:28;5.00;;;4.33;;
11222;SDS011;5668;52.012;8.724;2023-03-17T06:17:56;5.50;;;4.30;;
11222;SDS011;5668;52.012;8.724;2023-03-17T06:20:24;4.87;;;4.43;;
11222;SDS011;5668;52.012;8.724;2023-03-17T06:22:52;5.90;;;4.43;;
11222;SDS011;5668;52.012;8.724;2023-03-17T06:25:19;8.53;;;4.87;;
11222;SDS011;5668;52.012;8.724;2023-03-17T06:27:47;5.53;;;4.97;;
11222;SDS011;5668;52.012;8.724;2023-03-17T06:30:18;5.13;;;4.63;;
11222;SDS011;5668;52.012;8.724;2023-03-17T06:32:46;5.20;;;4.70;;
11222;SDS011;5668;52.012;8.724;2023-03-17T06:35:14;6.40;;;4.57;;
11222;SDS011;5668;52.012;8.724;2023-03-17T06:37:41;5.17;;;4.67;;
11222;SDS011;5668;52.012;8.724;2023-03-17T06:40:12;4.70;;;4.30;;
11222;SDS011;5668;52.012;8.724;2023-03-17T06:42:40;5.17;;;4.40;;
11222;SDS011;5668;52.012;8.724;2023-03-17T06:45:07;4.83;;;4.33;;
11222;SDS011;5668;52.012;8.724;2023-03-17T06:47:36;5.13;;;4.43;;
11222;SDS011;5668;52.012;8.724;2023-03-17T06:50:04;5.30;;;4.80;;
11222;SDS011;5668;52.012;8.724;2023-03-17T06:52:35;7.07;;;4.70;;
11222;SDS011;5668;52.012;8.724;2023-03-17T06:55:03;6.20;;;4.70;;
11222;SDS011;5668;52.012;8.724;2023-03-17T06:57:34;4.70;;;4.20;;
11222;SDS011;5668;52.012;8.724;2023-03-17T07:00:01;4.90;;;4.33;;
11222;SDS011;5668;52.012;8.724;2023-03-17T07:02:30;5.20;;;4.30;;
11222;SDS011;5668;52.012;8.724;2023-03-17T07:04:57;6.03;;;4.60;;
11222;SDS011;5668;52.012;8.724;2023-03-17T07:07:25;5.07;;;4.57;;
11222;SDS011;5668;52.012;8.724;2023-03-17T07:09:52;6.27;;;4.63;;
11222;SDS011;5668;52.012;8.724;2023-03-17T07:12:19;8.10;;;4.57;;
11222;SDS011;5668;52.012;8.724;2023-03-17T07:14:48;5.00;;;4.50;;
11222;SDS011;5668;52.012;8.724;2023-03-17T07:17:16;5.40;;;4.50;;
11222;SDS011;5668;52.012;8.724;2023-03-17T07:19:43;4.30;;;3.90;;
11222;SDS011;5668;52.012;8.724;2023-03-17T07:22:11;5.60;;;4.33;;
11222;SDS011;5668;52.012;8.724;2023-03-17T07:24:38;5.60;;;4.30;;
11222;SDS011;5668;52.012;8.724;2023-03-17T07:27:07;5.10;;;4.60;;
11222;SDS011;5668;52.012;8.724;2023-03-17T07:29:35;7.00;;;4.60;;
11222;SDS011;5668;52.012;8.724;2023-03-17T07:32:04;8.00;;;4.63;;
11222;SDS011;5668;52.012;8.724;2023-03-17T07:34:33;5.53;;;4.93;;
11222;SDS011;5668;52.012;8.724;2023-03-17T07:37:02;5.03;;;4.40;;
11222;SDS011;5668;52.012;8.724;2023-03-17T07:39:30;6.83;;;4.53;;
11222;SDS011;5668;52.012;8.724;2023-03-17T07:41:57;5.53;;;4.47;;
11222;SDS011;5668;52.012;8.724;2023-03-17T07:44:25;5.97;;;4.40;;
11222;SDS011;5668;52.012;8.724;2023-03-17T07:46:53;5.10;;;4.60;;
11222;SDS011;5668;52.012;8.724;2023-03-17T07:49:21;5.07;;;4.57;;
11222;SDS011;5668;52.012;8.724;2023-03-17T07:51:49;5.57;;;4.50;;
11222;SDS011;5668;52.012;8.724;2023-03-17T07:54:16;6.10;;;4.13;;
11222;SDS011;5668;52.012;8.724;2023-03-17T07:56:43;5.40;;;4.60;;
11222;SDS011;5668;52.012;8.724;2023-03-17T07:59:11;4.97;;;4.20;;
11222;SDS011;5668;52.012;8.724;2023-03-17T08:01:39;4.47;;;3.97;;
11222;SDS011;5668;52.012;8.724;2023-03-17T08:04:06;6.67;;;4.47;;
11222;SDS011;5668;52.012;8.724;2023-03-17T08:06:36;4.97;;;4.13;;
11222;SDS011;5668;52.012;8.724;2023-03-17T08:09:04;4.80;;;4.30;;
11222;SDS011;5668;52.012;8.724;2023-03-17T08:11:32;4.30;;;3.90;;
11222;SDS011;5668;52.012;8.724;2023-03-17T08:14:00;6.83;;;4.20;;
11222;SDS011;5668;52.012;8.724;2023-03-17T08:16:27;4.33;;;3.93;;
11222;SDS011;5668;52.012;8.724;2023-03-17T08:18:55;7.30;;;4.23;;
11222;SDS011;5668;52.012;8.724;2023-03-17T08:21:22;4.40;;;3.80;;
11222;SDS011;5668;52.012;8.724;2023-03-17T08:23:51;4.50;;;4.10;;
11222;SDS011;5668;52.012;8.724;2023-03-17T08:26:19;4.57;;;4.00;;
11222;SDS011;5668;52.012;8.724;2023-03-17T08:28:47;4.23;;;3.83;;
11222;SDS011;5668;52.012;8.724;2023-03-17T08:31:15;5.30;;;4.30;;
11222;SDS011;5668;52.012;8.724;2023-03-17T08:33:45;4.60;;;4.10;;
11222;SDS011;5668;52.012;8.724;2023-03-17T08:36:13;5.10;;;3.70;;
11222;SDS011;5668;52.012;8.724;2023-03-17T08:38:41;4.73;;;4.17;;
11222;SDS011;5668;52.012;8.724;2023-03-17T08:41:12;5.67;;;3.97;;
11222;SDS011;5668;52.012;8.724;2023-03-17T08:43:41;4.67;;;3.80;;
11222;SDS011;5668;52.012;8.724;2023-03-17T08:46:12;5.10;;;3.97;;
11222;SDS011;5668;52.012;8.724;2023-03-17T08:48:41;4.47;;;3.40;;
11222;SDS011;5668;52.012;8.724;2023-03-17T08:51:09;4.63;;;3.63;;
11222;SDS011;5668;52.012;8.724;2023-03-17T08:53:37;4.17;;;3.77;;
11222;SDS011;5668;52.012;8.724;2023-03-17T08:56:05;4.17;;;3.77;;
11222;SDS011;5668;52.012;8.724;2023-03-17T08:58:35;5.70;;;3.87;;
11222;SDS011;5668;52.012;8.724;2023-03-17T09:01:04;6.00;;;3.73;;
11222;SDS011;5668;52.012;8.724;2023-03-17T09:03:33;4.23;;;3.83;;
11222;SDS011;5668;52.012;8.724;2023-03-17T09:06:01;4.10;;;3.53;;
11222;SDS011;5668;52.012;8.724;2023-03-17T09:08:31;4.03;;;3.40;;
11222;SDS011;5668;52.012;8.724;2023-03-17T09:10:59;4.50;;;3.53;;
11222;SDS011;5668;52.012;8.724;2023-03-17T09:13:29;5.03;;;3.70;;
11222;SDS011;5668;52.012;8.724;2023-03-17T09:15:59;4.13;;;3.60;;
11222;SDS011;5668;52.012;8.724;2023-03-17T09:18:26;4.37;;;3.37;;
11222;SDS011;5668;52.012;8.724;2023-03-17T09:20:55;4.63;;;3.60;;
11222;SDS011;5668;52.012;8.724;2023-03-17T09:23:22;3.67;;;3.23;;
11222;SDS011;5668;52.012;8.724;2023-03-17T09:25:50;3.80;;;3.37;;
11222;SDS011;5668;52.012;8.724;2023-03-17T09:28:17;4.00;;;3.40;;
11222;SDS011;5668;52.012;8.724;2023-03-17T09:30:44;3.93;;;3.40;;
11222;SDS011;5668;52.012;8.724;2023-03-17T09:33:13;5.23;;;3.47;;
11222;SDS011;5668;52.012;8.724;2023-03-17T09:35:41;4.20;;;3.30;;
11222;SDS011;5668;52.012;8.724;2023-03-17T09:38:09;4.57;;;2.97;;
11222;SDS011;5668;52.012;8.724;2023-03-17T09:40:40;3.50;;;3.20;;
11222;SDS011;5668;52.012;8.724;2023-03-17T09:43:16;4.13;;;3.30;;
11222;SDS011;5668;52.012;8.724;2023-03-17T09:45:52;3.47;;;2.90;;
11222;SDS011;5668;52.012;8.724;2023-03-17T09:48:27;3.73;;;3.20;;
11222;SDS011;5668;52.012;8.724;2023-03-17T09:51:05;3.40;;;3.10;;
11222;SDS011;5668;52.012;8.724;2023-03-17T09:53:35;4.43;;;3.10;;
11222;SDS011;5668;52.012;8.724;2023-03-17T09:56:10;3.43;;;2.77;;
11222;SDS011;5668;52.012;8.724;2023-03-17T09:58:41;3.27;;;2.40;;
11222;SDS011;5668;52.012;8.724;2023-03-17T10:01:13;3.60;;;2.27;;
11222;SDS011;5668;52.012;8.724;2023-03-17T10:03:43;3.30;;;2.33;;
11222;SDS011;5668;52.012;8.724;2023-03-17T10:06:14;7.40;;;2.80;;
11222;SDS011;5668;52.012;8.724;2023-03-17T10:08:50;3.07;;;2.70;;
11222;SDS011;5668;52.012;8.724;2023-03-17T10:11:25;2.83;;;2.33;;
11222;SDS011;5668;52.012;8.724;2023-03-17T10:14:01;2.43;;;2.23;;
11222;SDS011;5668;52.012;8.724;2023-03-17T10:16:33;2.27;;;2.07;;
11222;SDS011;5668;52.012;8.724;2023-03-17T10:19:12;2.67;;;2.17;;
11222;SDS011;5668;52.012;8.724;2023-03-17T10:21:47;2.87;;;2.30;;
11222;SDS011;5668;52.012;8.724;2023-03-17T10:24:17;2.23;;;2.03;;
11222;SDS011;5668;52.012;8.724;2023-03-17T10:26:47;2.13;;;1.90;;
11222;SDS011;5668;52.012;8.724;2023-03-17T10:29:17;3.43;;;1.80;;
11222;SDS011;5668;52.012;8.724;2023-03-17T10:31:46;2.23;;;1.90;;
11222;SDS011;5668;52.012;8.724;2023-03-17T10:34:16;2.53;;;2.10;;
11222;SDS011;5668;52.012;8.724;2023-03-17T10:36:48;3.00;;;2.30;;
11222;SDS011;5668;52.012;8.724;2023-03-17T10:39:19;4.20;;;2.20;;
11222;SDS011;5668;52.012;8.724;2023-03-17T10:41:51;3.70;;;2.07;;
11222;SDS011;5668;52.012;8.724;2023-03-17T10:44:25;2.27;;;2.00;;
11222;SDS011;5668;52.012;8.724;2023-03-17T10:47:01;3.97;;;2.47;;
11222;SDS011;5668;52.012;8.724;2023-03-17T10:49:33;4.43;;;1.90;;
11222;SDS011;5668;52.012;8.724;2023-03-17T10:52:04;2.93;;;2.03;;
11222;SDS011;5668;52.012;8.724;2023-03-17T10:54:33;2.60;;;1.90;;
11222;SDS011;5668;52.012;8.724;2023-03-17T10:57:01;2.58;;;1.80;;
11222;SDS011;5668;52.012;8.724;2023-03-17T10:59:36;3.20;;;2.00;;
11222;SDS011;5668;52.012;8.724;2023-03-17T11:02:14;2.53;;;1.98;;
11222;SDS011;5668;52.012;8.724;2023-03-17T11:04:51;2.40;;;1.90;;
11222;SDS011;5668;52.012;8.724;2023-03-17T11:07:26;2.28;;;1.73;;
11222;SDS011;5668;52.012;8.724;2023-03-17T11:09:56;2.83;;;1.90;;
11222;SDS011;5668;52.012;8.724;2023-03-17T11:12:27;2.33;;;1.83;;
11222;SDS011;5668;52.012;8.724;2023-03-17T11:15:01;2.40;;;1.63;;
11222;SDS011;5668;52.012;8.724;2023-03-17T11:17:37;2.28;;;1.80;;
11222;SDS011;5668;52.012;8.724;2023-03-17T11:20:18;2.50;;;1.77;;
11222;SDS011;5668;52.012;8.724;2023-03-17T11:22:58;2.22;;;1.90;;
11222;SDS011;5668;52.012;8.724;2023-03-17T11:25:29;4.35;;;1.80;;
11222;SDS011;5668;52.012;8.724;2023-03-17T11:28:05;3.22;;;1.88;;
11222;SDS011;5668;52.012;8.724;2023-03-17T11:30:41;2.63;;;1.77;;
11222;SDS011;5668;52.012;8.724;2023-03-17T11:33:18;1.58;;;1.48;;
11222;SDS011;5668;52.012;8.724;2023-03-17T11:35:59;2.25;;;1.80;;
11222;SDS011;5668;52.012;8.724;2023-03-17T11:38:35;3.25;;;1.92;;
11222;SDS011;5668;52.012;8.724;2023-03-17T11:41:23;3.00;;;2.00;;
11222;SDS011;5668;52.012;8.724;2023-03-17T11:44:03;2.28;;;1.83;;
11222;SDS011;5668;52.012;8.724;2023-03-17T11:46:59;3.17;;;1.80;;
11222;SDS011;5668;52.012;8.724;2023-03-17T11:49:33;2.35;;;1.70;;
11222;SDS011;5668;52.012;8.724;2023-03-17T11:52:06;2.85;;;1.77;;
11222;SDS011;5668;52.012;8.724;2023-03-17T11:54:43;2.10;;;1.60;;
11222;SDS011;5668;52.012;8.724;2023-03-17T11:57:18;2.53;;;1.60;;
11222;SDS011;5668;52.012;8.724;2023-03-17T11:59:48;2.13;;;1.77;;
11222;SDS011;5668;52.012;8.724;2023-03-17T12:02:21;3.13;;;1.60;;
11222;SDS011;5668;52.012;8.724;2023-03-17T12:04:55;1.90;;;1.80;;
11222;SDS011;5668;52.012;8.724;2023-03-17T12:07:29;2.53;;;1.67;;
11222;SDS011;5668;52.012;8.724;2023-03-17T12:10:02;1.67;;;1.40;;
11222;SDS011;5668;52.012;8.724;2023-03-17T12:12:43;2.33;;;1.35;;
11222;SDS011;5668;52.012;8.724;2023-03-17T12:15:18;2.80;;;1.70;;
11222;SDS011;5668;52.012;8.724;2023-03-17T12:17:55;2.33;;;1.83;;
11222;SDS011;5668;52.012;8.724;2023-03-17T12:20:28;2.40;;;1.40;;
11222;SDS011;5668;52.012;8.724;2023-03-17T12:23:01;2.10;;;1.77;;
11222;SDS011;5668;52.012;8.724;2023-03-17T12:25:36;2.10;;;1.67;;
11222;SDS011;5668;52.012;8.724;2023-03-17T12:28:14;2.03;;;1.55;;
11222;SDS011;5668;52.012;8.724;2023-03-17T12:30:48;2.70;;;1.52;;
11222;SDS011;5668;52.012;8.724;2023-03-17T12:33:20;1.98;;;1.77;;
11222;SDS011;5668;52.012;8.724;2023-03-17T12:35:53;1.77;;;1.50;;
11222;SDS011;5668;52.012;8.724;2023-03-17T12:38:24;2.55;;;1.85;;
11222;SDS011;5668;52.012;8.724;2023-03-17T12:41:06;2.42;;;1.92;;
11222;SDS011;5668;52.012;8.724;2023-03-17T12:43:45;2.40;;;1.80;;
11222;SDS011;5668;52.012;8.724;2023-03-17T12:46:36;2.60;;;1.73;;
11222;SDS011;5668;52.012;8.724;2023-03-17T12:49:28;1.77;;;1.45;;
11222;SDS011;5668;52.012;8.724;2023-03-17T12:55:00;1.90;;;1.67;;
11222;SDS011;5668;52.012;8.724;2023-03-17T12:57:37;2.95;;;1.50;;
11222;SDS011;5668;52.012;8.724;2023-03-17T13:00:13;3.60;;;1.67;;
11222;SDS011;5668;52.012;8.724;2023-03-17T13:02:47;2.85;;;1.70;;
11222;SDS011;5668;52.012;8.724;2023-03-17T13:05:16;1.50;;;1.40;;
11222;SDS011;5668;52.012;8.724;2023-03-17T13:07:53;3.20;;;1.77;;
11222;SDS011;5668;52.012;8.724;2023-03-17T13:13:12;1.45;;;1.30;;
11222;SDS011;5668;52.012;8.724;2023-03-17T13:15:53;1.70;;;1.45;;
11222;SDS011;5668;52.012;8.724;2023-03-17T13:21:31;3.67;;;1.63;;
11222;SDS011;5668;52.012;8.724;2023-03-17T13:24:18;2.35;;;1.50;;
11222;SDS011;5668;52.012;8.724;2023-03-17T13:26:53;2.35;;;1.50;;
11222;SDS011;5668;52.012;8.724;2023-03-17T13:29:24;2.17;;;1.80;;
11222;SDS011;5668;52.012;8.724;2023-03-17T13:35:09;2.28;;;1.90;;
11222;SDS011;5668;52.012;8.724;2023-03-17T13:37:49;3.55;;;1.95;;
11222;SDS011;5668;52.012;8.724;2023-03-17T13:40:28;2.03;;;1.50;;
11222;SDS011;5668;52.012;8.724;2023-03-17T13:43:13;2.60;;;1.77;;
11222;SDS011;5668;52.012;8.724;2023-03-17T13:46:17;1.95;;;1.67;;
11222;SDS011;5668;52.012;8.724;2023-03-17T13:48:52;1.92;;;1.70;;
11222;SDS011;5668;52.012;8.724;2023-03-17T13:51:22;2.72;;;1.65;;
11222;SDS011;5668;52.012;8.724;2023-03-17T13:53:52;3.58;;;1.60;;
11222;SDS011;5668;52.012;8.724;2023-03-17T13:56:22;1.48;;;1.30;;
11222;SDS011;5668;52.012;8.724;2023-03-17T14:01:40;2.55;;;1.73;;
11222;SDS011;5668;52.012;8.724;2023-03-17T14:04:17;2.20;;;1.88;;
11222;SDS011;5668;52.012;8.724;2023-03-17T14:06:47;3.55;;;1.80;;
11222;SDS011;5668;52.012;8.724;2023-03-17T14:09:19;1.80;;;1.40;;
11222;SDS011;5668;52.012;8.724;2023-03-17T14:11:54;2.85;;;2.00;;
11222;SDS011;5668;52.012;8.724;2023-03-17T14:14:29;2.65;;;1.90;;
11222;SDS011;5668;52.012;8.724;2023-03-17T14:17:08;2.17;;;1.70;;
11222;SDS011;5668;52.012;8.724;2023-03-17T14:19:38;2.38;;;1.75;;
11222;SDS011;5668;52.012;8.724;2023-03-17T14:22:17;2.10;;;1.90;;
11222;SDS011;5668;52.012;8.724;2023-03-17T14:24:49;2.50;;;1.77;;
11222;SDS011;5668;52.012;8.724;2023-03-17T14:27:18;2.00;;;1.80;;
11222;SDS011;5668;52.012;8.724;2023-03-17T14:29:48;2.42;;;1.88;;
11222;SDS011;5668;52.012;8.724;2023-03-17T14:32:16;2.30;;;1.73;;
11222;SDS011;5668;52.012;8.724;2023-03-17T14:34:46;2.10;;;1.70;;
11222;SDS011;5668;52.012;8.724;2023-03-17T14:37:19;2.60;;;2.15;;
11222;SDS011;5668;52.012;8.724;2023-03-17T14:39:48;5.25;;;2.67;;
11222;SDS011;5668;52.012;8.724;2023-03-17T14:42:18;3.00;;;1.90;;
11222;SDS011;5668;52.012;8.724;2023-03-17T14:44:59;4.00;;;2.10;;
11222;SDS011;5668;52.012;8.724;2023-03-17T14:47:27;5.28;;;2.10;;
11222;SDS011;5668;52.012;8.724;2023-03-17T14:50:01;2.40;;;2.20;;
11222;SDS011;5668;52.012;8.724;2023-03-17T14:52:31;2.47;;;2.10;;
11222;SDS011;5668;52.012;8.724;2023-03-17T14:54:59;3.70;;;2.22;;
11222;SDS011;5668;52.012;8.724;2023-03-17T14:57:27;2.78;;;1.73;;
11222;SDS011;5668;52.012;8.724;2023-03-17T15:00:00;2.20;;;2.00;;
11222;SDS011;5668;52.012;8.724;2023-03-17T15:02:39;2.35;;;1.70;;
11222;SDS011;5668;52.012;8.724;2023-03-17T15:05:11;3.22;;;1.90;;
11222;SDS011;5668;52.012;8.724;2023-03-17T15:07:50;3.83;;;1.90;;
11222;SDS011;5668;52.012;8.724;2023-03-17T15:10:20;3.83;;;1.95;;
11222;SDS011;5668;52.012;8.724;2023-03-17T15:12:58;3.40;;;1.80;;
11222;SDS011;5668;52.012;8.724;2023-03-17T15:15:29;3.53;;;1.60;;
11222;SDS011;5668;52.012;8.724;2023-03-17T15:17:58;2.67;;;1.95;;
11222;SDS011;5668;52.012;8.724;2023-03-17T15:20:29;3.83;;;1.80;;
11222;SDS011;5668;52.012;8.724;2023-03-17T15:23:02;2.03;;;1.70;;
11222;SDS011;5668;52.012;8.724;2023-03-17T15:25:32;2.30;;;1.80;;
11222;SDS011;5668;52.012;8.724;2023-03-17T15:28:05;4.55;;;1.92;;
11222;SDS011;5668;52.012;8.724;2023-03-17T15:30:39;2.80;;;2.05;;
11222;SDS011;5668;52.012;8.724;2023-03-17T15:33:14;4.15;;;2.00;;
11222;SDS011;5668;52.012;8.724;2023-03-17T15:35:45;2.40;;;1.98;;
11222;SDS011;5668;52.012;8.724;2023-03-17T15:38:12;4.65;;;1.67;;
11222;SDS011;5668;52.012;8.724;2023-03-17T15:40:40;2.53;;;1.58;;